Time;durP1;ratioP1;P1;durP2;ratioP2;P2;SDS_P1;SDS_P2;PMS_P1;PMS_P2;Temp;Humidity;BMP_temperature;BMP_pressure;BME280_temperature;BME280_humidity;BME280_pressure;Samples;Min_cycle;Max_cycle;Signal;HPM_P1;HPM_P2
2023/04/26 00:01:42;;;;;;;9.93;2.25;;;3.90;99.90;;;;;;5106263;28;20023;-38
2023/04/26 00:04:07;;;;;;;11.38;2.67;;;3.90;99.90;;;;;;5106783;28;20031;-38
2023/04/26 00:06:34;;;;;;;9.82;2.78;;;3.90;99.90;;;;;;5107248;28;20477;-38
2023/04/26 00:08:59;;;;;;;10.18;2.33;;;3.90;99.90;;;;;;5110593;28;20028;-38
2023/04/26 00:11:25;;;;;;;12.27;3.30;;;3.90;99.90;;;;;;5110629;28;20023;-38
2023/04/26 00:13:51;;;;;;;11.35;2.65;;;3.80;99.90;;;;;;5111015;28;20703;-38
2023/04/26 00:16:17;;;;;;;13.70;3.10;;;3.80;99.90;;;;;;5110439;28;20365;-38
2023/04/26 00:18:45;;;;;;;17.10;2.97;;;3.80;99.90;;;;;;5091607;28;20050;-38
2023/04/26 00:21:10;;;;;;;10.00;2.85;;;3.80;99.90;;;;;;5092218;28;20605;-38
2023/04/26 00:23:36;;;;;;;13.88;2.60;;;3.80;99.90;;;;;;5110502;28;20109;-38
2023/04/26 00:26:02;;;;;;;12.20;3.22;;;3.70;99.90;;;;;;5110658;28;20150;-37
2023/04/26 00:28:28;;;;;;;13.38;2.90;;;3.70;99.90;;;;;;5110156;28;20122;-37
2023/04/26 00:30:56;;;;;;;12.23;4.47;;;3.60;99.90;;;;;;5094055;28;20079;-38
2023/04/26 00:33:22;;;;;;;11.48;3.78;;;3.50;99.90;;;;;;5110363;28;20480;-39
2023/04/26 00:35:48;;;;;;;13.70;2.90;;;3.60;99.90;;;;;;5110274;28;20020;-38
2023/04/26 00:38:14;;;;;;;12.10;2.80;;;3.60;99.90;;;;;;5109863;28;20064;-38
2023/04/26 00:40:39;;;;;;;14.63;3.83;;;3.60;99.90;;;;;;5109883;28;20020;-37
2023/04/26 00:43:05;;;;;;;9.93;2.50;;;3.50;99.90;;;;;;5110341;28;20015;-38
2023/04/26 00:45:31;;;;;;;14.13;2.97;;;3.50;99.90;;;;;;5091726;28;20023;-38
2023/04/26 00:47:58;;;;;;;14.57;3.47;;;3.50;99.90;;;;;;5110477;28;20446;-38
2023/04/26 00:50:24;;;;;;;12.38;3.17;;;3.40;99.90;;;;;;5091992;28;20024;-38
2023/04/26 00:52:50;;;;;;;16.75;3.80;;;3.40;99.90;;;;;;5109759;28;20027;-38
2023/04/26 00:55:15;;;;;;;15.57;3.67;;;3.40;99.90;;;;;;5110028;28;20450;-38
2023/04/26 00:57:42;;;;;;;15.52;3.67;;;3.40;99.90;;;;;;5109615;28;20028;-38
2023/04/26 01:00:08;;;;;;;8.50;3.40;;;3.40;99.90;;;;;;5111869;27;20503;-38
2023/04/26 01:02:34;;;;;;;17.20;3.72;;;3.40;99.90;;;;;;5108946;28;20016;-38
2023/04/26 01:05:00;;;;;;;10.35;4.22;;;3.50;99.90;;;;;;5109605;28;20478;-38
2023/04/26 01:07:25;;;;;;;13.38;3.90;;;3.40;99.90;;;;;;5109684;28;20026;-38
2023/04/26 01:09:51;;;;;;;16.55;3.58;;;3.40;99.90;;;;;;5109303;28;20464;-38
2023/04/26 01:12:17;;;;;;;16.10;5.10;;;3.40;99.90;;;;;;5108933;28;20108;-38
2023/04/26 01:14:43;;;;;;;15.60;4.15;;;3.50;99.90;;;;;;5090544;28;20481;-38
2023/04/26 01:17:09;;;;;;;15.80;3.83;;;3.40;99.90;;;;;;5109415;28;20055;-38
2023/04/26 01:19:36;;;;;;;15.57;4.00;;;3.40;99.90;;;;;;5108561;28;20028;-38
2023/04/26 01:22:02;;;;;;;13.05;3.60;;;3.40;99.90;;;;;;5108479;28;20111;-38
2023/04/26 01:24:28;;;;;;;9.20;3.13;;;3.40;99.90;;;;;;5109362;28;20031;-38
2023/04/26 01:26:53;;;;;;;20.55;3.25;;;3.30;99.90;;;;;;5109527;28;20392;-38
2023/04/26 01:29:20;;;;;;;18.55;4.57;;;3.30;99.90;;;;;;5111642;27;20024;-38
2023/04/26 01:31:47;;;;;;;14.00;4.20;;;3.30;99.90;;;;;;5081971;28;20502;-38
2023/04/26 01:34:13;;;;;;;12.40;3.90;;;3.30;99.90;;;;;;5109353;28;20049;-38
2023/04/26 01:36:38;;;;;;;11.52;4.00;;;3.20;99.90;;;;;;5109405;28;20039;-39
2023/04/26 01:39:04;;;;;;;15.32;4.13;;;3.30;99.90;;;;;;5109214;28;20036;-39
2023/04/26 01:41:31;;;;;;;18.73;4.32;;;3.20;99.90;;;;;;5108836;28;20024;-39
2023/04/26 01:43:57;;;;;;;15.90;4.03;;;3.20;99.90;;;;;;5108970;28;20045;-39
2023/04/26 01:46:22;;;;;;;14.73;3.85;;;3.30;99.90;;;;;;5090542;28;20265;-39
2023/04/26 01:48:48;;;;;;;14.23;3.50;;;3.30;99.90;;;;;;5108676;28;20357;-39
2023/04/26 01:51:13;;;;;;;14.70;4.88;;;3.20;99.90;;;;;;5108905;28;20035;-40
2023/04/26 01:53:39;;;;;;;13.93;4.80;;;3.20;99.90;;;;;;5090061;28;20035;-39
2023/04/26 01:56:04;;;;;;;20.17;5.45;;;3.20;99.90;;;;;;5108887;28;20031;-39
2023/04/26 01:58:30;;;;;;;19.27;4.05;;;3.20;99.90;;;;;;5108243;28;20028;-40
2023/04/26 02:01:03;;;;;;;20.25;4.80;;;3.20;99.90;;;;;;5110258;27;20062;-39
2023/04/26 02:03:28;;;;;;;13.45;4.38;;;3.20;99.90;;;;;;5091090;28;20027;-39
2023/04/26 02:05:54;;;;;;;15.70;4.75;;;3.20;99.90;;;;;;5108222;28;20035;-39
2023/04/26 02:08:20;;;;;;;18.23;4.65;;;3.20;99.90;;;;;;5108059;28;20031;-39
2023/04/26 02:10:45;;;;;;;15.18;6.05;;;3.10;99.90;;;;;;5106840;28;20100;-39
2023/04/26 02:13:11;;;;;;;12.10;4.00;;;3.20;99.90;;;;;;5108256;28;20120;-39
2023/04/26 02:15:36;;;;;;;18.75;4.63;;;3.20;99.90;;;;;;5107841;28;20103;-39
2023/04/26 02:18:02;;;;;;;17.17;4.40;;;3.10;99.90;;;;;;5108002;28;20032;-39
2023/04/26 02:20:28;;;;;;;14.02;4.35;;;3.10;99.90;;;;;;5106977;28;20516;-39
2023/04/26 02:22:53;;;;;;;19.35;4.80;;;3.10;99.90;;;;;;5107689;28;20489;-39
2023/04/26 02:25:19;;;;;;;11.85;4.57;;;3.10;99.90;;;;;;5108002;28;20104;-38
2023/04/26 02:27:45;;;;;;;29.00;6.15;;;3.00;99.90;;;;;;5109306;27;20012;-39
2023/04/26 02:30:11;;;;;;;17.50;4.75;;;3.10;99.90;;;;;;5107930;28;20051;-39
2023/04/26 02:32:36;;;;;;;18.38;4.95;;;3.00;99.90;;;;;;5089783;28;20472;-39
2023/04/26 02:35:02;;;;;;;21.67;5.18;;;2.90;99.90;;;;;;5108472;28;20381;-38
2023/04/26 02:37:27;;;;;;;13.73;4.82;;;3.00;99.90;;;;;;5108177;28;20522;-39
2023/04/26 02:39:53;;;;;;;16.80;5.13;;;2.90;99.90;;;;;;5107430;28;20038;-38
2023/04/26 02:42:18;;;;;;;19.88;5.25;;;2.90;99.90;;;;;;5107525;28;20035;-38
2023/04/26 02:44:44;;;;;;;23.00;4.85;;;2.90;99.90;;;;;;5107728;28;20019;-38
2023/04/26 02:47:10;;;;;;;13.05;4.85;;;2.90;99.90;;;;;;5107802;28;20024;-38
2023/04/26 02:49:35;;;;;;;12.40;5.13;;;2.90;99.90;;;;;;5107421;28;20034;-38
2023/04/26 02:52:01;;;;;;;11.25;4.88;;;2.90;99.90;;;;;;5107361;28;20054;-38
2023/04/26 02:54:26;;;;;;;21.65;5.70;;;2.90;99.90;;;;;;5107804;28;20024;-38
2023/04/26 02:56:53;;;;;;;20.08;6.05;;;3.00;99.90;;;;;;5109678;27;20106;-38
2023/04/26 02:59:19;;;;;;;23.83;6.20;;;2.90;99.90;;;;;;5107697;28;20442;-38
2023/04/26 03:01:45;;;;;;;33.47;6.85;;;2.90;99.90;;;;;;5107605;28;20031;-38
2023/04/26 03:04:10;;;;;;;19.10;5.68;;;2.90;99.90;;;;;;5108143;28;20027;-38
2023/04/26 03:06:36;;;;;;;23.02;7.57;;;2.90;99.90;;;;;;5089396;28;20027;-38
2023/04/26 03:09:01;;;;;;;17.05;5.53;;;2.90;99.90;;;;;;5107650;28;20024;-37
2023/04/26 03:11:27;;;;;;;20.65;5.18;;;2.80;99.90;;;;;;5107750;28;20504;-37
2023/04/26 03:13:52;;;;;;;21.85;5.97;;;2.80;99.90;;;;;;5088934;28;20023;-37
2023/04/26 03:16:22;;;;;;;19.23;6.68;;;2.80;99.90;;;;;;5107963;28;20028;-37
2023/04/26 03:18:47;;;;;;;20.98;6.45;;;2.80;99.90;;;;;;5107333;28;20476;-37
2023/04/26 03:21:13;;;;;;;15.95;5.80;;;2.80;99.90;;;;;;5107185;28;20073;-38
2023/04/26 03:23:39;;;;;;;20.30;5.13;;;2.80;99.90;;;;;;5107703;28;20276;-38
2023/04/26 03:26:04;;;;;;;16.52;6.13;;;2.80;99.90;;;;;;5113079;28;20305;-38
2023/04/26 03:28:30;;;;;;;18.10;5.32;;;2.70;99.90;;;;;;5106961;28;20054;-38
2023/04/26 03:30:55;;;;;;;21.13;6.43;;;2.80;99.90;;;;;;5107700;28;20039;-38
2023/04/26 03:33:21;;;;;;;14.30;5.65;;;2.80;99.90;;;;;;5107902;28;20027;-38
2023/04/26 03:35:46;;;;;;;20.08;5.65;;;2.80;99.90;;;;;;5107820;28;20036;-38
2023/04/26 03:38:12;;;;;;;27.23;5.90;;;2.80;99.90;;;;;;5107490;28;20023;-38
2023/04/26 03:40:37;;;;;;;19.98;7.35;;;2.70;99.90;;;;;;5107964;28;20024;-38
2023/04/26 03:43:03;;;;;;;21.63;6.43;;;2.70;99.90;;;;;;5109448;28;20031;-37
2023/04/26 03:45:28;;;;;;;17.55;5.88;;;2.70;99.90;;;;;;5111929;28;20492;-39
2023/04/26 03:47:55;;;;;;;26.90;7.88;;;2.70;99.90;;;;;;5111864;28;20020;-39
2023/04/26 03:50:21;;;;;;;14.70;5.50;;;2.70;99.90;;;;;;5111197;28;20020;-39
2023/04/26 03:52:46;;;;;;;13.60;5.95;;;2.70;99.90;;;;;;5111245;28;20658;-38
2023/04/26 03:55:12;;;;;;;13.38;5.70;;;2.70;99.90;;;;;;5116334;27;20023;-39
2023/04/26 03:57:38;;;;;;;20.42;6.45;;;2.70;99.90;;;;;;5111313;27;20024;-38
2023/04/26 04:00:12;;;;;;;18.20;5.40;;;2.60;99.90;;;;;;5110663;28;20035;-38
2023/04/26 04:02:38;;;;;;;16.02;6.13;;;2.60;99.90;;;;;;5111084;28;20084;-38
2023/04/26 04:05:04;;;;;;;24.65;6.25;;;2.60;99.90;;;;;;5110944;28;20027;-38
2023/04/26 04:07:31;;;;;;;18.40;5.93;;;2.60;99.90;;;;;;5110922;28;20031;-38
2023/04/26 04:09:57;;;;;;;21.48;6.45;;;2.60;99.90;;;;;;5110783;28;20038;-39
2023/04/26 04:12:23;;;;;;;19.80;5.18;;;2.70;99.90;;;;;;5110734;28;20031;-38
2023/04/26 04:14:48;;;;;;;19.92;6.55;;;2.70;99.90;;;;;;5108420;27;20063;-38
2023/04/26 04:17:14;;;;;;;18.83;5.60;;;2.70;99.90;;;;;;5111021;28;20068;-38
2023/04/26 04:19:39;;;;;;;19.15;5.93;;;2.70;99.90;;;;;;5113072;27;20027;-38
2023/04/26 04:22:05;;;;;;;18.73;7.35;;;2.70;99.90;;;;;;5116086;27;20031;-38
2023/04/26 04:24:31;;;;;;;18.92;5.35;;;2.70;99.90;;;;;;5099881;27;20553;-38
2023/04/26 04:26:57;;;;;;;11.68;5.00;;;2.80;99.90;;;;;;5116899;27;20027;-38
2023/04/26 04:29:22;;;;;;;19.70;5.80;;;2.90;99.90;;;;;;5110475;28;20046;-38
2023/04/26 04:31:48;;;;;;;20.10;7.35;;;3.00;99.90;;;;;;5109808;28;20046;-38
2023/04/26 04:34:15;;;;;;;19.05;6.18;;;3.10;99.90;;;;;;5110085;28;20056;-38
2023/04/26 04:36:40;;;;;;;17.52;6.20;;;3.10;99.90;;;;;;5091376;28;20425;-38
2023/04/26 04:39:11;;;;;;;29.30;6.63;;;3.10;99.90;;;;;;5088526;28;20108;-38
2023/04/26 04:41:36;;;;;;;16.70;5.57;;;3.10;99.90;;;;;;5109942;28;20401;-38
2023/04/26 04:44:02;;;;;;;21.02;6.13;;;3.20;99.90;;;;;;5109349;28;20028;-38
2023/04/26 04:46:28;;;;;;;19.60;6.05;;;3.30;99.90;;;;;;5109633;28;20012;-38
2023/04/26 04:48:53;;;;;;;17.35;5.68;;;3.40;99.90;;;;;;5102694;28;20035;-38
2023/04/26 04:51:20;;;;;;;16.80;6.38;;;3.40;99.90;;;;;;5105362;28;20386;-38
2023/04/26 04:53:45;;;;;;;20.85;6.60;;;3.40;99.90;;;;;;5108230;28;20578;-38
2023/04/26 04:56:11;;;;;;;19.35;6.30;;;3.50;99.90;;;;;;5109192;27;20032;-38
2023/04/26 04:58:36;;;;;;;14.98;6.43;;;3.60;99.90;;;;;;5111011;27;20480;-38
2023/04/26 05:01:02;;;;;;;25.17;7.80;;;3.60;99.90;;;;;;5112961;27;20032;-45
2023/04/26 05:03:28;;;;;;;24.30;6.65;;;3.60;99.90;;;;;;5109115;28;20026;-46
2023/04/26 05:05:54;;;;;;;14.43;5.57;;;3.70;99.90;;;;;;5108918;27;20622;-45
2023/04/26 05:08:19;;;;;;;21.17;5.80;;;3.70;99.90;;;;;;5108837;28;20028;-45
2023/04/26 05:10:45;;;;;;;20.73;6.60;;;3.80;99.90;;;;;;5089974;28;20024;-44
2023/04/26 05:13:10;;;;;;;15.60;5.97;;;3.80;99.90;;;;;;5090414;28;20031;-45
2023/04/26 05:15:36;;;;;;;19.23;5.70;;;3.90;99.90;;;;;;5108308;28;20035;-45
2023/04/26 05:18:01;;;;;;;19.95;5.63;;;3.90;99.90;;;;;;5109041;28;20055;-44
2023/04/26 05:20:28;;;;;;;24.48;6.95;;;3.90;99.90;;;;;;5108895;28;20039;-42
2023/04/26 05:22:53;;;;;;;20.35;5.75;;;4.00;99.90;;;;;;5110889;27;20420;-42
2023/04/26 05:25:19;;;;;;;18.35;6.60;;;4.00;99.90;;;;;;5109474;28;20027;-43
2023/04/26 05:27:44;;;;;;;13.30;5.20;;;4.00;99.90;;;;;;5110593;27;20206;-42
2023/04/26 05:30:11;;;;;;;28.55;6.40;;;4.00;99.90;;;;;;5109080;28;20031;-45
2023/04/26 05:32:36;;;;;;;22.52;6.65;;;4.10;99.90;;;;;;5108975;28;20070;-45
2023/04/26 05:35:02;;;;;;;17.70;5.28;;;4.20;99.90;;;;;;5111784;27;20055;-45
2023/04/26 05:37:28;;;;;;;16.85;5.55;;;4.20;99.90;;;;;;5108643;28;20506;-42
2023/04/26 05:39:53;;;;;;;17.02;6.05;;;4.30;99.90;;;;;;5108191;28;20027;-43
2023/04/26 05:42:19;;;;;;;15.15;5.47;;;4.40;99.90;;;;;;5107629;28;20062;-44
2023/04/26 05:44:44;;;;;;;18.50;5.88;;;4.60;99.90;;;;;;5108012;28;20059;-43
2023/04/26 05:47:10;;;;;;;17.98;5.55;;;4.70;99.90;;;;;;5108609;28;20050;-44
2023/04/26 05:49:35;;;;;;;19.23;5.82;;;4.70;99.90;;;;;;5107745;28;20035;-43
2023/04/26 05:52:02;;;;;;;18.60;5.20;;;4.70;99.90;;;;;;5107887;27;20077;-43
2023/04/26 05:54:28;;;;;;;14.90;5.75;;;4.70;99.90;;;;;;5108184;28;20040;-44
2023/04/26 05:56:55;;;;;;;15.20;5.53;;;4.80;99.90;;;;;;5107548;28;20473;-43
2023/04/26 05:59:20;;;;;;;18.92;6.50;;;4.90;99.90;;;;;;5107946;28;20097;-43
2023/04/26 06:01:46;;;;;;;16.20;7.18;;;4.90;99.90;;;;;;5108209;28;20008;-43
2023/04/26 06:04:11;;;;;;;20.08;6.63;;;5.00;99.90;;;;;;5109946;27;20043;-43
2023/04/26 06:06:37;;;;;;;26.50;5.88;;;5.00;99.90;;;;;;5108049;27;20051;-43
2023/04/26 06:09:03;;;;;;;18.00;5.72;;;5.10;99.90;;;;;;5089693;28;20033;-43
2023/04/26 06:11:29;;;;;;;26.27;6.15;;;5.10;99.90;;;;;;5107261;28;20382;-43
2023/04/26 06:13:54;;;;;;;15.13;6.03;;;5.00;99.90;;;;;;5107818;28;20032;-44
2023/04/26 06:16:21;;;;;;;16.85;6.88;;;5.00;99.90;;;;;;5107353;28;20031;-44
2023/04/26 06:18:46;;;;;;;17.98;5.80;;;5.00;99.90;;;;;;5089699;28;20035;-44
2023/04/26 06:21:12;;;;;;;14.00;5.93;;;5.00;99.90;;;;;;5107958;28;20024;-46
2023/04/26 06:23:37;;;;;;;29.20;7.13;;;5.00;99.90;;;;;;5108023;28;20166;-43
2023/04/26 06:26:03;;;;;;;18.65;6.20;;;4.90;99.90;;;;;;5107921;28;20020;-45
2023/04/26 06:28:28;;;;;;;21.80;5.68;;;5.00;99.90;;;;;;5110296;27;20084;-45
2023/04/26 06:30:54;;;;;;;16.45;6.00;;;4.90;99.90;;;;;;5108012;28;20466;-44
2023/04/26 06:33:19;;;;;;;15.23;6.20;;;4.90;99.90;;;;;;5107950;28;20031;-44
2023/04/26 06:35:45;;;;;;;12.60;5.60;;;4.90;99.90;;;;;;5107455;28;20036;-45
2023/04/26 06:38:11;;;;;;;15.88;5.85;;;5.00;99.90;;;;;;5107509;28;20079;-45
2023/04/26 06:40:37;;;;;;;20.90;5.80;;;5.10;99.90;;;;;;5090282;28;20023;-44
2023/04/26 06:43:03;;;;;;;19.33;5.55;;;5.10;99.90;;;;;;5112663;27;20092;-44
2023/04/26 06:45:29;;;;;;;16.38;5.93;;;5.10;99.90;;;;;;5120162;27;20058;-44
2023/04/26 06:47:54;;;;;;;14.88;6.40;;;5.20;99.90;;;;;;5109401;27;20069;-45
2023/04/26 06:50:20;;;;;;;14.18;5.50;;;5.40;99.90;;;;;;5107622;27;20017;-46
2023/04/26 06:52:45;;;;;;;15.48;6.25;;;5.50;99.90;;;;;;5109967;27;20016;-45
2023/04/26 06:55:11;;;;;;;20.65;5.88;;;5.70;99.90;;;;;;5108598;27;20117;-47
2023/04/26 06:57:37;;;;;;;14.40;5.40;;;5.90;99.90;;;;;;5107851;28;20503;-46
2023/04/26 07:00:04;;;;;;;14.70;5.03;;;6.10;99.90;;;;;;5088963;28;20034;-44
2023/04/26 07:02:30;;;;;;;13.32;5.43;;;6.30;99.90;;;;;;5112431;27;20110;-44
2023/04/26 07:04:56;;;;;;;14.57;5.22;;;6.40;99.90;;;;;;5128349;27;20072;-47
2023/04/26 07:07:22;;;;;;;19.75;5.40;;;6.60;99.90;;;;;;5129149;27;20011;-45
2023/04/26 07:09:47;;;;;;;14.20;4.45;;;6.80;99.90;;;;;;5128503;27;20034;-44
2023/04/26 07:12:13;;;;;;;10.55;4.63;;;7.00;99.90;;;;;;5128161;27;20037;-44
2023/04/26 07:14:40;;;;;;;17.52;5.00;;;6.90;99.90;;;;;;5125634;27;20411;-44
2023/04/26 07:17:06;;;;;;;16.02;4.93;;;7.00;99.90;;;;;;5107712;28;20027;-45
2023/04/26 07:19:32;;;;;;;15.02;5.35;;;7.10;99.90;;;;;;5107803;28;20027;-45
2023/04/26 07:21:57;;;;;;;14.27;4.90;;;7.30;99.90;;;;;;5108091;28;20028;-45
2023/04/26 07:24:23;;;;;;;21.58;5.63;;;7.40;99.90;;;;;;5108849;28;20563;-39
2023/04/26 07:26:48;;;;;;;13.77;4.25;;;7.40;99.90;;;;;;5123000;28;20015;-39
2023/04/26 07:29:14;;;;;;;18.85;4.80;;;7.80;99.90;;;;;;5107436;28;20034;-39
2023/04/26 07:31:40;;;;;;;18.63;5.80;;;8.00;99.90;;;;;;5107554;28;20059;-39
2023/04/26 07:34:06;;;;;;;20.65;4.28;;;8.10;99.90;;;;;;5107626;28;20057;-39
2023/04/26 07:36:31;;;;;;;11.02;4.50;;;8.10;99.90;;;;;;5107248;28;20031;-39
2023/04/26 07:38:57;;;;;;;8.93;4.10;;;8.20;99.90;;;;;;5106224;28;20525;-39
2023/04/26 07:41:22;;;;;;;13.60;4.15;;;8.40;99.90;;;;;;5119569;28;20028;-39
2023/04/26 07:43:48;;;;;;;8.05;3.60;;;8.30;99.90;;;;;;5106918;28;20099;-39
2023/04/26 07:46:14;;;;;;;21.85;6.55;;;8.30;99.90;;;;;;5106938;28;20027;-39
2023/04/26 07:48:39;;;;;;;14.27;4.25;;;8.40;99.90;;;;;;5107545;28;20546;-39
2023/04/26 07:51:12;;;;;;;9.07;3.63;;;8.60;99.90;;;;;;5107630;28;20020;-39
2023/04/26 07:53:41;;;;;;;19.02;4.13;;;8.70;99.90;;;;;;5115868;28;20032;-39
2023/04/26 07:56:07;;;;;;;18.33;4.68;;;8.80;99.90;;;;;;5113034;28;20106;-39
2023/04/26 07:58:34;;;;;;;9.45;4.50;;;8.50;99.90;;;;;;5096046;28;20426;-39
2023/04/26 08:00:59;;;;;;;13.15;4.03;;;8.70;99.90;;;;;;5109417;28;20563;-39
2023/04/26 08:03:26;;;;;;;12.43;3.42;;;8.80;99.90;;;;;;5113295;28;20102;-39
2023/04/26 08:05:52;;;;;;;12.60;4.63;;;8.90;99.90;;;;;;5103166;28;20024;-39
2023/04/26 08:08:18;;;;;;;11.82;4.13;;;8.90;99.90;;;;;;5086796;28;20503;-39
2023/04/26 08:10:44;;;;;;;9.63;4.10;;;9.30;99.90;;;;;;5106124;28;20183;-39
2023/04/26 08:13:10;;;;;;;15.52;4.38;;;9.60;98.90;;;;;;5122648;27;20019;-39
2023/04/26 08:15:36;;;;;;;14.65;4.53;;;10.10;99.40;;;;;;5108901;28;20422;-39
2023/04/26 08:18:01;;;;;;;7.85;3.88;;;10.70;96.30;;;;;;5115545;28;20054;-39
2023/04/26 08:20:27;;;;;;;9.35;3.83;;;10.60;95.20;;;;;;5094372;28;20454;-39
2023/04/26 08:22:56;;;;;;;11.70;3.05;;;11.10;95.40;;;;;;5112427;28;20030;-39
2023/04/26 08:25:22;;;;;;;11.27;3.90;;;12.20;95.80;;;;;;5114999;28;20023;-40
2023/04/26 08:27:48;;;;;;;11.40;3.78;;;12.40;92.50;;;;;;5113183;27;20059;-39
2023/04/26 08:30:14;;;;;;;9.30;3.42;;;12.50;91.90;;;;;;5113534;27;20061;-39
2023/04/26 08:32:39;;;;;;;9.32;3.25;;;12.80;90.20;;;;;;5094970;28;20092;-41
2023/04/26 08:35:05;;;;;;;11.57;3.30;;;13.30;87.90;;;;;;5092278;27;20186;-40
2023/04/26 08:37:31;;;;;;;7.38;2.90;;;13.60;84.40;;;;;;5112681;27;20027;-40
2023/04/26 08:39:57;;;;;;;10.02;2.85;;;14.30;83.10;;;;;;5109820;28;20077;-40
2023/04/26 08:42:25;;;;;;;8.73;2.50;;;14.40;77.60;;;;;;5110786;27;20101;-40
2023/04/26 08:44:52;;;;;;;10.07;2.92;;;14.50;79.40;;;;;;5101361;28;20362;-40
2023/04/26 08:47:27;;;;;;;5.43;2.03;;;15.50;75.70;;;;;;5109951;28;20455;-41
2023/04/26 08:49:58;;;;;;;4.88;2.58;;;15.80;74.00;;;;;;5110264;28;20405;-40
2023/04/26 08:52:27;;;;;;;9.05;3.10;;;15.70;71.90;;;;;;5109379;28;20023;-40
2023/04/26 08:54:53;;;;;;;6.47;2.53;;;16.30;70.00;;;;;;5109778;28;20049;-40
2023/04/26 08:57:20;;;;;;;6.28;2.35;;;17.30;71.70;;;;;;5110338;27;20077;-41
2023/04/26 08:59:46;;;;;;;9.57;3.00;;;16.80;65.00;;;;;;5092062;28;20505;-40
2023/04/26 09:02:17;;;;;;;10.57;2.33;;;16.00;65.70;;;;;;5109363;28;20026;-40
2023/04/26 09:04:44;;;;;;;4.88;1.85;;;16.00;67.90;;;;;;5108879;28;20480;-40
2023/04/26 09:07:18;;;;;;;7.40;2.70;;;15.40;68.80;;;;;;5109215;28;20016;-40
2023/04/26 09:09:47;;;;;;;8.65;2.33;;;16.20;66.80;;;;;;5109981;28;20051;-40
2023/04/26 09:12:13;;;;;;;7.30;2.53;;;16.70;65.60;;;;;;5089269;28;20110;-40
2023/04/26 09:14:38;;;;;;;5.95;2.15;;;17.30;64.50;;;;;;5109462;28;20107;-40
2023/04/26 09:17:04;;;;;;;8.00;2.30;;;16.90;65.00;;;;;;5110205;28;20492;-40
2023/04/26 09:19:37;;;;;;;6.32;2.97;;;15.80;65.20;;;;;;5109657;28;20080;-39
2023/04/26 09:22:03;;;;;;;8.88;2.80;;;14.70;68.00;;;;;;5109679;28;20019;-40
2023/04/26 09:24:46;;;;;;;10.02;2.53;;;14.60;69.00;;;;;;5109353;28;20028;-40
2023/04/26 09:27:12;;;;;;;7.85;2.65;;;15.00;66.00;;;;;;5109668;27;20084;-40
2023/04/26 09:29:38;;;;;;;6.03;1.80;;;15.50;68.50;;;;;;5110928;27;20019;-41
2023/04/26 09:32:04;;;;;;;7.03;2.58;;;16.90;64.60;;;;;;5109470;28;20504;-41
2023/04/26 09:34:42;;;;;;;6.07;1.95;;;16.50;59.70;;;;;;5108801;28;20069;-40
2023/04/26 09:37:12;;;;;;;6.68;2.83;;;16.10;65.10;;;;;;5109528;28;20023;-41
2023/04/26 09:39:41;;;;;;;6.15;2.67;;;14.90;64.60;;;;;;5109695;27;20038;-40
2023/04/26 09:42:10;;;;;;;9.30;2.70;;;13.60;66.00;;;;;;5091281;28;20118;-39
2023/04/26 09:44:36;;;;;;;7.95;2.45;;;12.50;69.40;;;;;;5108843;28;20076;-39
2023/04/26 09:47:09;;;;;;;8.45;3.28;;;11.40;72.70;;;;;;5108103;27;20148;-39
2023/04/26 09:49:43;;;;;;;7.97;3.33;;;10.90;75.80;;;;;;5110578;27;20362;-39
2023/04/26 09:52:09;;;;;;;9.55;3.30;;;10.70;77.70;;;;;;5109048;27;20035;-39
2023/04/26 09:54:50;;;;;;;6.30;2.80;;;10.60;78.40;;;;;;5090699;28;20565;-39
2023/04/26 09:57:18;;;;;;;8.88;3.60;;;11.00;77.70;;;;;;5088016;27;20122;-39
2023/04/26 09:59:50;;;;;;;9.77;3.33;;;11.30;80.70;;;;;;5108572;27;20019;-39
2023/04/26 10:02:24;;;;;;;5.45;2.40;;;11.50;73.90;;;;;;5107833;28;20134;-39
2023/04/26 10:04:52;;;;;;;8.75;2.78;;;12.20;73.60;;;;;;5106090;28;20430;-40
2023/04/26 10:07:19;;;;;;;5.60;2.15;;;13.80;72.20;;;;;;5112061;27;20046;-40
2023/04/26 10:09:46;;;;;;;9.27;2.60;;;14.40;67.70;;;;;;5113226;27;20024;-41
2023/04/26 10:12:13;;;;;;;6.07;2.28;;;14.20;65.20;;;;;;5108969;27;20434;-40
2023/04/26 10:14:40;;;;;;;6.07;2.20;;;13.50;67.10;;;;;;5110592;27;20298;-39
2023/04/26 10:17:06;;;;;;;6.22;2.13;;;12.80;68.60;;;;;;5116527;27;20028;-39
2023/04/26 10:19:35;;;;;;;6.93;2.50;;;12.20;69.80;;;;;;5107751;28;20034;-39
2023/04/26 10:22:07;;;;;;;7.93;2.58;;;11.50;70.80;;;;;;5089631;28;20520;-39
2023/04/26 10:24:36;;;;;;;5.13;2.65;;;11.00;73.10;;;;;;5108455;28;20032;-39
2023/04/26 10:27:03;;;;;;;11.35;2.85;;;10.70;72.50;;;;;;5108386;28;20030;-39
2023/04/26 10:29:53;;;;;;;10.43;2.40;;;10.70;75.00;;;;;;5107926;28;20513;-39
2023/04/26 10:32:20;;;;;;;3.80;2.42;;;10.70;73.60;;;;;;5109966;27;20055;-39
2023/04/26 10:35:12;;;;;;;10.43;3.13;;;10.80;75.70;;;;;;5111744;27;20039;-39
2023/04/26 10:37:59;;;;;;;10.05;3.63;;;10.70;75.40;;;;;;5106198;28;20020;-39
2023/04/26 10:40:27;;;;;;;7.25;2.58;;;10.80;75.10;;;;;;5088980;28;20047;-39
2023/04/26 10:43:17;;;;;;;5.68;2.45;;;10.70;76.10;;;;;;5110717;27;20027;-39
2023/04/26 10:45:44;;;;;;;11.52;3.38;;;10.50;75.60;;;;;;5110206;27;20059;-39
2023/04/26 10:48:16;;;;;;;6.93;2.90;;;10.20;75.20;;;;;;5111232;27;20027;-39
2023/04/26 10:51:12;;;;;;;7.80;3.22;;;9.90;76.80;;;;;;5107463;28;20061;-39
2023/04/26 10:53:46;;;;;;;9.70;3.83;;;10.10;76.30;;;;;;5108993;27;20107;-39
2023/04/26 10:56:27;;;;;;;8.07;2.45;;;9.80;78.40;;;;;;5108882;27;20481;-39
2023/04/26 10:59:10;;;;;;;6.97;2.83;;;9.80;78.30;;;;;;5104718;28;20381;-39
2023/04/26 11:01:36;;;;;;;6.65;2.58;;;9.70;79.60;;;;;;5106607;27;20028;-39
2023/04/26 11:04:10;;;;;;;9.80;2.55;;;10.00;78.90;;;;;;5112619;27;20023;-39
2023/04/26 11:06:49;;;;;;;8.68;3.20;;;10.40;77.80;;;;;;5108240;27;20085;-39
2023/04/26 11:09:40;;;;;;;13.50;3.78;;;10.90;74.90;;;;;;5105673;27;20057;-39
2023/04/26 11:12:09;;;;;;;;;;;11.00;75.10;;;;;;5108789;27;20024;-39
2023/04/26 11:14:35;;;;;;;8.05;2.65;;;11.00;74.20;;;;;;5084398;28;20508;-39
2023/04/26 11:17:05;;;;;;;8.95;3.50;;;10.70;76.40;;;;;;5113155;28;20051;-39
2023/04/26 11:19:31;;;;;;;12.40;2.90;;;10.60;76.40;;;;;;5106798;28;20032;-39
2023/04/26 11:21:58;;;;;;;6.00;3.42;;;10.50;76.90;;;;;;5107686;28;20023;-39
2023/04/26 11:24:25;;;;;;;13.85;3.10;;;10.30;76.40;;;;;;5088970;28;20497;-39
2023/04/26 11:26:52;;;;;;;7.18;2.83;;;10.50;78.10;;;;;;5106045;28;20024;-39
2023/04/26 11:29:18;;;;;;;13.13;4.25;;;10.80;78.40;;;;;;5106867;28;20100;-39
2023/04/26 11:31:54;;;;;;;9.52;4.28;;;11.10;76.10;;;;;;5107612;28;20035;-39
2023/04/26 11:34:40;;;;;;;8.88;3.08;;;11.30;78.30;;;;;;5107384;28;20122;-39
2023/04/26 11:37:06;;;;;;;8.45;2.95;;;11.30;74.60;;;;;;5107175;28;20027;-39
2023/04/26 11:39:36;;;;;;;7.40;3.05;;;11.00;74.60;;;;;;5105746;28;20030;-39
2023/04/26 11:42:11;;;;;;;6.57;2.85;;;11.00;74.40;;;;;;5105939;28;20039;-39
2023/04/26 11:44:38;;;;;;;6.75;2.78;;;11.10;76.00;;;;;;5087147;28;20213;-39
2023/04/26 11:47:06;;;;;;;10.13;3.00;;;11.00;72.80;;;;;;5105550;28;20073;-39
2023/04/26 11:49:33;;;;;;;5.30;2.92;;;11.10;75.00;;;;;;5095381;28;20063;-39
2023/04/26 11:52:00;;;;;;;8.75;3.15;;;10.90;73.50;;;;;;5105837;28;20032;-39
2023/04/26 11:54:33;;;;;;;8.55;3.30;;;11.00;75.00;;;;;;5106813;28;20474;-38
2023/04/26 11:56:59;;;;;;;6.85;2.53;;;11.00;77.60;;;;;;5107220;28;20043;-38
2023/04/26 11:59:26;;;;;;;7.35;2.78;;;10.90;73.80;;;;;;5106279;28;20251;-39
2023/04/26 12:01:53;;;;;;;6.82;3.15;;;10.70;72.80;;;;;;5106556;28;20034;-40
2023/04/26 12:04:27;;;;;;;8.02;2.67;;;10.70;74.40;;;;;;5109107;28;20034;-38
2023/04/26 12:06:53;;;;;;;5.45;2.78;;;10.60;73.70;;;;;;5106076;28;20062;-39
2023/04/26 12:09:26;;;;;;;6.72;3.15;;;10.50;74.80;;;;;;5109795;28;20539;-38
2023/04/26 12:12:03;;;;;;;7.30;2.78;;;10.60;76.20;;;;;;5109843;28;20205;-38
2023/04/26 12:14:33;;;;;;;10.38;3.42;;;10.70;77.00;;;;;;5109936;28;20118;-38
2023/04/26 12:17:03;;;;;;;17.48;7.93;;;11.20;78.30;;;;;;5109958;27;20194;-39
2023/04/26 12:19:33;;;;;;;11.93;3.95;;;11.70;74.80;;;;;;5091161;28;20100;-39
2023/04/26 12:21:59;;;;;;;8.13;3.58;;;12.40;72.40;;;;;;5103068;27;20050;-39
2023/04/26 12:24:28;;;;;;;10.77;3.35;;;12.90;75.40;;;;;;5113447;27;20058;-39
2023/04/26 12:26:54;;;;;;;9.82;2.55;;;12.90;69.30;;;;;;5091444;27;20031;-39
2023/04/26 12:29:21;;;;;;;7.20;2.88;;;13.20;75.40;;;;;;5108802;28;20048;-39
2023/04/26 12:31:46;;;;;;;6.32;2.78;;;14.00;72.90;;;;;;5089896;28;20034;-39
2023/04/26 12:34:12;;;;;;;7.35;3.20;;;14.40;68.50;;;;;;5109319;28;20526;-39
2023/04/26 12:36:43;;;;;;;7.28;3.13;;;14.20;68.80;;;;;;5109358;28;20020;-39
2023/04/26 12:39:10;;;;;;;6.43;3.33;;;13.40;68.30;;;;;;5109758;28;20485;-39
2023/04/26 12:41:35;;;;;;;7.32;2.75;;;13.10;70.20;;;;;;5091769;28;20111;-39
2023/04/26 12:44:01;;;;;;;7.97;2.72;;;13.10;66.90;;;;;;5109365;28;20417;-39
2023/04/26 12:46:26;;;;;;;4.95;2.80;;;12.80;66.10;;;;;;5108869;28;20027;-39
2023/04/26 12:48:52;;;;;;;4.15;2.13;;;12.50;66.50;;;;;;5091014;28;20030;-39